createdAt,value
2023-04-09T00:00:40.569Z,9.02
2023-04-09T00:03:07.327Z,9.11
2023-04-09T00:05:33.931Z,9.13
2023-04-09T00:08:00.528Z,9.13
2023-04-09T00:10:27.262Z,9.16
2023-04-09T00:12:53.902Z,9.15
2023-04-09T00:15:30.035Z,9.11
2023-04-09T00:17:58.143Z,9.15
2023-04-09T00:20:24.769Z,8.77
2023-04-09T00:22:52.409Z,9.06
2023-04-09T00:25:20.136Z,9.11
2023-04-09T00:27:47.138Z,8.66
2023-04-09T00:30:13.922Z,9.05
2023-04-09T00:32:40.770Z,9.03
2023-04-09T00:35:07.746Z,8.57
2023-04-09T00:37:34.790Z,8.86
2023-04-09T00:40:01.447Z,9.03
2023-04-09T00:42:32.352Z,9.04
2023-04-09T00:44:59.468Z,9.04
2023-04-09T00:47:28.387Z,8.60
2023-04-09T00:49:55.794Z,8.70
2023-04-09T00:52:23.265Z,9.09
2023-04-09T00:54:51.137Z,9.05
2023-04-09T00:57:18.757Z,9.18
2023-04-09T00:59:45.888Z,9.14
2023-04-09T01:02:12.789Z,9.17
2023-04-09T01:04:42.668Z,9.04
2023-04-09T01:07:48.002Z,9.13
2023-04-09T01:10:38.438Z,9.19
2023-04-09T01:13:20.083Z,9.09
2023-04-09T01:15:56.357Z,9.10
2023-04-09T01:18:44.587Z,9.15
2023-04-09T01:21:15.000Z,9.09
2023-04-09T01:24:09.864Z,8.98
2023-04-09T01:27:03.207Z,8.77
2023-04-09T01:29:41.760Z,8.77
2023-04-09T01:32:09.385Z,9.09
2023-04-09T01:34:36.770Z,9.16
2023-04-09T01:37:04.361Z,9.22
2023-04-09T01:39:31.580Z,9.15
2023-04-09T01:41:58.311Z,9.17
2023-04-09T01:44:26.425Z,9.07
2023-04-09T01:46:55.449Z,9.05
2023-04-09T01:49:22.817Z,9.13
2023-04-09T01:51:50.401Z,9.10
2023-04-09T01:54:17.463Z,8.89
2023-04-09T01:56:46.048Z,9.19
2023-04-09T01:59:13.095Z,9.10
2023-04-09T02:01:54.904Z,9.12
2023-04-09T02:04:39.101Z,9.12
2023-04-09T02:07:35.329Z,9.09
2023-04-09T02:10:02.661Z,8.99
2023-04-09T02:12:31.867Z,8.77
2023-04-09T02:15:01.158Z,8.99
2023-04-09T02:17:27.702Z,9.12
2023-04-09T02:19:54.531Z,9.12
2023-04-09T02:22:21.156Z,9.05
2023-04-09T02:24:47.730Z,8.97
2023-04-09T02:27:14.562Z,9.00
2023-04-09T02:29:41.372Z,9.01
2023-04-09T02:32:08.316Z,9.02
2023-04-09T02:34:34.980Z,9.04
2023-04-09T02:37:01.564Z,9.06
2023-04-09T02:39:28.101Z,9.06
2023-04-09T02:41:54.678Z,8.88
2023-04-09T02:44:21.219Z,9.01
2023-04-09T02:46:49.549Z,9.10
2023-04-09T02:49:16.646Z,9.03
2023-04-09T02:51:43.257Z,9.03
2023-04-09T02:54:09.810Z,9.08
2023-04-09T02:56:36.388Z,8.97
2023-04-09T02:59:02.970Z,9.05
2023-04-09T03:01:29.628Z,8.56
2023-04-09T03:03:56.393Z,9.05
2023-04-09T03:06:23.272Z,8.95
2023-04-09T03:08:49.925Z,8.73
2023-04-09T03:11:16.667Z,9.03
2023-04-09T03:13:43.304Z,8.69
2023-04-09T03:16:10.556Z,8.97
2023-04-09T03:18:37.368Z,8.61
2023-04-09T03:21:07.966Z,8.67
2023-04-09T03:23:35.313Z,8.99
2023-04-09T03:26:06.417Z,9.11
2023-04-09T03:28:33.179Z,8.96
2023-04-09T03:30:59.738Z,9.07
2023-04-09T03:33:26.460Z,9.04
2023-04-09T03:35:53.239Z,9.02
2023-04-09T03:38:20.167Z,8.95
2023-04-09T03:40:46.977Z,8.73
2023-04-09T03:43:13.539Z,9.07
2023-04-09T03:45:40.131Z,8.96
2023-04-09T03:48:06.801Z,8.94
2023-04-09T03:50:41.073Z,9.02
2023-04-09T03:53:08.184Z,8.94
2023-04-09T03:55:34.917Z,8.96
2023-04-09T03:58:01.485Z,8.87
2023-04-09T04:00:28.176Z,9.04
2023-04-09T04:02:54.988Z,8.92
2023-04-09T04:05:24.598Z,9.05
2023-04-09T04:07:51.288Z,8.99
2023-04-09T04:10:18.177Z,8.74
2023-04-09T04:12:44.777Z,8.99
2023-04-09T04:15:11.688Z,8.96
2023-04-09T04:17:38.323Z,8.94
2023-04-09T04:20:05.239Z,8.82
2023-04-09T04:22:31.860Z,9.03
2023-04-09T04:24:58.451Z,9.03
2023-04-09T04:27:25.075Z,9.00
2023-04-09T04:29:51.610Z,8.98
2023-04-09T04:32:18.187Z,8.77
2023-04-09T04:34:49.234Z,8.76
2023-04-09T04:37:16.098Z,8.95
2023-04-09T04:39:42.754Z,8.95
2023-04-09T04:42:09.474Z,8.99
2023-04-09T04:44:36.057Z,9.02
2023-04-09T04:47:02.672Z,9.00
2023-04-09T04:49:29.193Z,9.02
2023-04-09T04:51:55.825Z,9.05
2023-04-09T04:54:22.350Z,9.04
2023-04-09T04:56:48.937Z,8.80
2023-04-09T04:59:15.662Z,9.11
2023-04-09T05:01:42.554Z,9.06
2023-04-09T05:04:09.292Z,9.07
2023-04-09T05:06:35.903Z,8.77
2023-04-09T05:09:02.547Z,9.05
2023-04-09T05:11:29.121Z,9.10
2023-04-09T05:13:55.804Z,9.09
2023-04-09T05:16:22.599Z,9.20
2023-04-09T05:18:49.328Z,9.23
2023-04-09T05:21:16.050Z,9.19
2023-04-09T05:23:42.965Z,9.11
2023-04-09T05:26:09.594Z,9.15
2023-04-09T05:28:36.644Z,9.23
2023-04-09T05:31:03.314Z,9.28
2023-04-09T05:33:30.049Z,9.37
2023-04-09T05:35:56.701Z,9.35
2023-04-09T05:38:23.322Z,9.41
2023-04-09T05:40:50.032Z,9.36
2023-04-09T05:43:16.693Z,9.37
2023-04-09T05:45:43.380Z,9.46
2023-04-09T05:48:10.209Z,9.43
2023-04-09T05:50:51.056Z,8.93
2023-04-09T05:53:21.847Z,9.35
2023-04-09T05:55:51.346Z,9.23
2023-04-09T05:58:21.798Z,9.47
2023-04-09T06:00:48.453Z,9.23
2023-04-09T06:05:41.619Z,9.49
2023-04-09T06:08:08.281Z,9.40
2023-04-09T06:10:34.910Z,9.60
2023-04-09T06:13:02.016Z,9.25
2023-04-09T06:15:28.719Z,9.45
2023-04-09T06:17:57.461Z,9.37
2023-04-09T06:20:25.743Z,9.39
2023-04-09T06:22:52.308Z,9.41
2023-04-09T06:25:19.021Z,9.57
2023-04-09T06:27:45.695Z,9.51
2023-04-09T06:30:12.577Z,9.42
2023-04-09T06:32:47.245Z,9.64
2023-04-09T06:35:20.822Z,9.64
2023-04-09T06:37:47.370Z,9.61
2023-04-09T06:40:14.772Z,9.61
2023-04-09T06:42:41.353Z,9.66
2023-04-09T06:45:08.824Z,9.62
2023-04-09T06:47:36.413Z,9.51
2023-04-09T06:50:03.296Z,9.59
2023-04-09T06:52:29.851Z,9.61
2023-04-09T06:54:56.419Z,9.61
2023-04-09T06:57:23.060Z,9.57
2023-04-09T06:59:49.636Z,9.53
2023-04-09T07:02:16.354Z,9.38
2023-04-09T07:04:43.114Z,9.51
2023-04-09T07:07:09.691Z,9.43
2023-04-09T07:09:36.690Z,8.94
2023-04-09T07:12:03.452Z,9.77
2023-04-09T07:14:30.555Z,9.81
2023-04-09T07:16:57.259Z,9.83
2023-04-09T07:19:24.017Z,9.94
2023-04-09T07:21:51.115Z,9.93
2023-04-09T07:24:17.713Z,10.00
2023-04-09T07:26:44.446Z,9.91
2023-04-09T07:29:11.164Z,10.09
2023-04-09T07:31:37.881Z,10.01
2023-04-09T07:34:04.702Z,10.06
2023-04-09T07:36:31.961Z,10.07
2023-04-09T07:38:58.664Z,10.13
2023-04-09T07:41:25.434Z,10.17
2023-04-09T07:43:52.223Z,10.18
2023-04-09T07:46:21.076Z,10.20
2023-04-09T07:48:48.504Z,10.43
2023-04-09T07:51:15.482Z,10.21
2023-04-09T07:53:42.111Z,10.23
2023-04-09T07:56:08.935Z,10.22
2023-04-09T07:58:38.108Z,10.15
2023-04-09T08:01:05.015Z,10.25
2023-04-09T08:03:31.984Z,10.60
2023-04-09T08:05:58.745Z,10.64
2023-04-09T08:08:25.321Z,10.85
2023-04-09T08:10:51.941Z,11.48
2023-04-09T08:13:19.326Z,11.53
2023-04-09T08:15:45.842Z,11.90
2023-04-09T08:18:13.305Z,11.82
2023-04-09T08:20:45.613Z,11.84
2023-04-09T08:23:12.612Z,11.72
2023-04-09T08:25:39.421Z,11.74
2023-04-09T08:28:06.662Z,11.84
2023-04-09T08:30:34.515Z,11.93
2023-04-09T08:33:02.327Z,12.22
2023-04-09T08:35:31.262Z,12.35
2023-04-09T08:37:59.353Z,12.40
2023-04-09T08:40:25.985Z,12.83
2023-04-09T08:42:57.045Z,12.86
2023-04-09T08:45:24.262Z,12.97
2023-04-09T08:47:52.245Z,13.12
2023-04-09T08:50:19.665Z,13.16
2023-04-09T08:52:49.009Z,12.40
2023-04-09T08:55:15.799Z,13.08
2023-04-09T08:57:43.014Z,12.80
2023-04-09T09:00:10.217Z,12.50
2023-04-09T09:02:37.281Z,12.70
2023-04-09T09:05:04.112Z,12.82
2023-04-09T09:07:31.539Z,12.86
2023-04-09T09:10:04.568Z,12.78
2023-04-09T09:12:42.166Z,13.33
2023-04-09T09:15:41.368Z,13.04
2023-04-09T09:18:08.873Z,13.39
2023-04-09T09:20:35.517Z,13.61
2023-04-09T09:23:02.812Z,13.17
2023-04-09T09:25:30.835Z,13.22
2023-04-09T09:28:07.979Z,13.41
2023-04-09T09:30:36.466Z,12.83
2023-04-09T09:33:10.976Z,13.18
2023-04-09T09:35:49.464Z,13.30
2023-04-09T09:38:17.242Z,13.21
2023-04-09T09:40:44.561Z,13.55
2023-04-09T09:43:12.855Z,13.19
2023-04-09T09:45:41.869Z,13.43
2023-04-09T09:48:11.607Z,12.97
2023-04-09T09:50:42.312Z,12.38
2023-04-09T09:53:11.413Z,12.60
2023-04-09T09:55:49.550Z,12.59
2023-04-09T09:58:28.026Z,12.32
2023-04-09T10:00:57.619Z,12.52
2023-04-09T10:03:30.453Z,12.33
2023-04-09T10:05:58.726Z,12.83
2023-04-09T10:08:25.682Z,12.89
2023-04-09T10:10:53.013Z,12.83
2023-04-09T10:13:33.666Z,13.03
2023-04-09T10:16:00.449Z,12.98
2023-04-09T10:18:27.142Z,13.03
2023-04-09T10:21:05.970Z,13.37
2023-04-09T10:23:42.934Z,13.38
2023-04-09T10:26:10.367Z,13.43
2023-04-09T10:28:40.224Z,13.15
2023-04-09T10:31:07.876Z,13.45
2023-04-09T10:33:37.147Z,13.00
2023-04-09T10:36:06.011Z,12.96
2023-04-09T10:38:40.967Z,12.85
2023-04-09T10:41:30.532Z,13.17
2023-04-09T10:43:57.936Z,13.20
2023-04-09T10:46:34.919Z,13.41
2023-04-09T10:49:15.637Z,13.41
2023-04-09T10:51:42.651Z,12.95
2023-04-09T10:54:33.960Z,13.54
2023-04-09T10:57:15.808Z,13.46
2023-04-09T10:59:48.230Z,13.55
2023-04-09T11:02:39.977Z,13.76
2023-04-09T11:05:19.047Z,13.74
2023-04-09T11:07:54.917Z,13.82
2023-04-09T11:10:22.090Z,13.86
2023-04-09T11:12:49.548Z,13.98
2023-04-09T11:15:18.461Z,14.52
2023-04-09T11:17:47.225Z,14.89
2023-04-09T11:20:21.204Z,15.40
2023-04-09T11:22:49.667Z,15.17
2023-04-09T11:25:20.753Z,15.49
2023-04-09T11:27:47.857Z,15.57
2023-04-09T11:30:15.113Z,15.80
2023-04-09T11:32:41.823Z,16.75
2023-04-09T11:35:13.545Z,17.22
2023-04-09T11:37:43.086Z,18.14
2023-04-09T11:40:23.063Z,18.59
2023-04-09T11:42:51.804Z,19.20
2023-04-09T11:45:20.053Z,18.88
2023-04-09T11:47:47.420Z,18.19
2023-04-09T11:50:16.259Z,18.57
2023-04-09T11:52:43.505Z,17.87
2023-04-09T11:55:11.069Z,18.84
2023-04-09T11:57:45.997Z,18.94
2023-04-09T12:00:17.290Z,19.23
2023-04-09T12:02:48.946Z,20.34
2023-04-09T12:05:25.192Z,20.39
2023-04-09T12:10:30.500Z,21.44
2023-04-09T12:13:03.474Z,22.64
2023-04-09T12:15:35.200Z,23.88
2023-04-09T12:18:02.285Z,24.00
2023-04-09T12:20:50.666Z,23.66
2023-04-09T12:23:17.196Z,24.70
2023-04-09T12:25:45.462Z,24.61
2023-04-09T12:28:15.651Z,23.79
2023-04-09T12:30:43.292Z,24.38
2023-04-09T12:33:11.356Z,24.60
2023-04-09T12:35:38.645Z,23.41
2023-04-09T12:38:05.550Z,24.40
2023-04-09T12:40:32.386Z,24.15
2023-04-09T12:42:59.144Z,25.98
2023-04-09T12:45:26.031Z,26.78
2023-04-09T12:47:53.074Z,28.31
2023-04-09T12:50:19.978Z,27.61
2023-04-09T12:52:46.840Z,28.47
2023-04-09T12:55:14.572Z,28.85
2023-04-09T12:57:44.758Z,29.32
2023-04-09T13:00:12.602Z,30.36
2023-04-09T13:02:39.570Z,29.38
2023-04-09T13:05:06.857Z,29.82
2023-04-09T13:07:33.730Z,28.30
2023-04-09T13:10:00.483Z,25.53
2023-04-09T13:12:27.521Z,24.26
2023-04-09T13:14:55.108Z,24.36
2023-04-09T13:17:22.435Z,26.01
2023-04-09T13:19:50.191Z,28.83
2023-04-09T13:22:16.978Z,29.64
2023-04-09T13:24:43.580Z,28.96
2023-04-09T13:27:11.406Z,27.70
2023-04-09T13:29:38.834Z,25.94
2023-04-09T13:32:11.171Z,27.69
2023-04-09T13:34:39.349Z,28.83
2023-04-09T13:37:06.262Z,29.41
2023-04-09T13:39:33.264Z,31.27
2023-04-09T13:42:03.653Z,32.68
2023-04-09T13:44:35.359Z,34.24
2023-04-09T13:47:02.189Z,33.89
2023-04-09T13:49:30.509Z,34.81
2023-04-09T13:51:57.211Z,32.55
2023-04-09T13:54:23.785Z,32.59
2023-04-09T13:56:51.313Z,31.02
2023-04-09T13:59:18.194Z,29.45
2023-04-09T14:01:45.043Z,30.68
2023-04-09T14:04:11.941Z,32.23
2023-04-09T14:06:38.520Z,31.12
2023-04-09T14:09:05.369Z,32.78
2023-04-09T14:11:32.068Z,32.95
2023-04-09T14:13:58.680Z,31.25
2023-04-09T14:16:25.830Z,28.98
2023-04-09T14:18:52.907Z,29.70
2023-04-09T14:21:19.907Z,29.27
2023-04-09T14:23:46.547Z,26.77
2023-04-09T14:26:13.241Z,24.92
2023-04-09T14:28:39.926Z,24.10
2023-04-09T14:31:06.985Z,23.93
2023-04-09T14:33:33.693Z,23.62
2023-04-09T14:36:00.533Z,23.10
2023-04-09T14:38:27.484Z,23.71
2023-04-09T14:40:54.118Z,23.92
2023-04-09T14:43:20.706Z,23.72
2023-04-09T14:45:47.642Z,22.69
2023-04-09T14:48:14.224Z,22.70
2023-04-09T14:50:41.317Z,22.09
2023-04-09T14:53:07.933Z,20.66
2023-04-09T14:55:34.627Z,19.49
2023-04-09T14:58:03.827Z,19.78
2023-04-09T15:00:31.661Z,19.88
2023-04-09T15:02:58.533Z,20.07
2023-04-09T15:05:25.325Z,21.91
2023-04-09T15:07:52.112Z,24.39
2023-04-09T15:10:19.212Z,23.41
2023-04-09T15:15:14.590Z,21.04
2023-04-09T15:17:41.307Z,20.73
2023-04-09T15:20:08.314Z,20.18
2023-04-09T15:22:34.956Z,20.11
2023-04-09T15:25:01.573Z,21.70
2023-04-09T15:27:28.186Z,22.10
2023-04-09T15:29:54.743Z,24.63
2023-04-09T15:32:21.499Z,25.10
2023-04-09T15:34:48.042Z,26.12
2023-04-09T15:37:14.632Z,27.44
2023-04-09T15:39:41.213Z,28.40
2023-04-09T15:42:10.302Z,29.00
2023-04-09T15:44:39.225Z,27.78
2023-04-09T15:47:05.820Z,28.63
2023-04-09T15:49:35.013Z,27.61
2023-04-09T15:52:01.653Z,28.60
2023-04-09T15:54:28.228Z,28.01
2023-04-09T15:56:54.852Z,27.33
2023-04-09T15:59:21.455Z,27.13
2023-04-09T16:01:48.795Z,26.66
2023-04-09T16:04:15.597Z,27.12
2023-04-09T16:06:42.300Z,26.30
2023-04-09T16:09:08.859Z,25.03
2023-04-09T16:11:36.460Z,23.72
2023-04-09T16:14:04.064Z,23.07
2023-04-09T16:16:30.654Z,21.82
2023-04-09T16:18:57.540Z,21.27
2023-04-09T16:21:24.174Z,20.93
2023-04-09T16:23:50.834Z,20.67
2023-04-09T16:26:17.406Z,19.86
2023-04-09T16:28:44.022Z,19.41
2023-04-09T16:31:10.724Z,18.94
2023-04-09T16:33:37.356Z,18.97
2023-04-09T16:36:04.111Z,18.36
2023-04-09T16:38:31.441Z,18.56
2023-04-09T16:40:58.229Z,18.10
2023-04-09T16:43:25.593Z,17.81
2023-04-09T16:45:52.406Z,17.39
2023-04-09T16:48:19.313Z,17.07
2023-04-09T16:50:45.986Z,17.01
2023-04-09T16:53:12.641Z,17.14
2023-04-09T16:55:39.286Z,16.55
2023-04-09T16:58:05.896Z,16.51
2023-04-09T17:00:32.673Z,16.22
2023-04-09T17:02:59.620Z,16.09
2023-04-09T17:05:26.408Z,16.12
2023-04-09T17:07:53.776Z,16.11
2023-04-09T17:10:20.940Z,15.90
2023-04-09T17:12:48.252Z,15.80
2023-04-09T17:15:14.936Z,14.87
2023-04-09T17:17:41.599Z,15.42
2023-04-09T17:20:08.669Z,15.24
2023-04-09T17:22:35.909Z,15.10
2023-04-09T17:25:02.640Z,15.22
2023-04-09T17:27:29.287Z,14.64
2023-04-09T17:29:56.173Z,13.79
2023-04-09T17:32:22.861Z,14.68
2023-04-09T17:34:49.647Z,14.70
2023-04-09T17:37:16.350Z,14.20
2023-04-09T17:39:43.062Z,14.19
2023-04-09T17:42:11.887Z,13.94
2023-04-09T17:44:38.907Z,13.60
2023-04-09T17:47:07.530Z,13.84
2023-04-09T17:49:34.499Z,13.66
2023-04-09T17:52:01.415Z,13.57
2023-04-09T17:54:33.797Z,13.58
2023-04-09T17:57:01.952Z,13.33
2023-04-09T17:59:29.158Z,12.85
2023-04-09T18:01:56.836Z,13.22
2023-04-09T18:04:24.880Z,12.98
2023-04-09T18:06:51.710Z,12.77
2023-04-09T18:09:18.929Z,12.75
2023-04-09T18:11:46.437Z,12.70
2023-04-09T18:14:13.164Z,12.54
2023-04-09T18:16:39.911Z,12.51
2023-04-09T18:19:07.092Z,12.07
2023-04-09T18:21:36.605Z,12.35
2023-04-09T18:24:03.892Z,12.27
2023-04-09T18:26:31.527Z,12.09
2023-04-09T18:29:00.768Z,12.23
2023-04-09T18:31:28.143Z,12.16
2023-04-09T18:33:54.962Z,12.03
2023-04-09T18:36:21.604Z,11.99
2023-04-09T18:38:48.387Z,11.63
2023-04-09T18:41:25.327Z,11.67
2023-04-09T18:43:52.476Z,11.74
2023-04-09T18:46:19.360Z,11.76
2023-04-09T18:48:47.260Z,11.68
2023-04-09T18:51:14.729Z,11.38
2023-04-09T18:53:42.089Z,11.15
2023-04-09T18:56:09.172Z,11.39
2023-04-09T18:58:36.476Z,11.20
2023-04-09T19:01:11.013Z,10.93
2023-04-09T19:03:38.154Z,11.12
2023-04-09T19:06:19.315Z,10.92
2023-04-09T19:08:47.415Z,11.10
2023-04-09T19:11:14.975Z,10.57
2023-04-09T19:13:41.602Z,10.83
2023-04-09T19:16:11.754Z,10.99
2023-04-09T19:18:38.376Z,10.73
2023-04-09T19:21:07.575Z,10.81
2023-04-09T19:23:34.823Z,10.75
2023-04-09T19:26:02.294Z,10.70
2023-04-09T19:28:29.112Z,10.40
2023-04-09T19:30:55.927Z,10.36
2023-04-09T19:33:23.705Z,10.45
2023-04-09T19:35:51.497Z,10.45
2023-04-09T19:38:19.154Z,10.43
2023-04-09T19:40:46.504Z,10.34
2023-04-09T19:43:14.051Z,10.35
2023-04-09T19:45:42.941Z,10.27
2023-04-09T19:48:09.867Z,10.23
2023-04-09T19:50:43.445Z,10.17
2023-04-09T19:53:10.966Z,9.90
2023-04-09T19:55:38.197Z,10.11
2023-04-09T19:58:05.710Z,10.02
2023-04-09T20:00:33.950Z,9.84
2023-04-09T20:03:00.723Z,9.81
2023-04-09T20:05:27.926Z,9.78
2023-04-09T20:07:54.776Z,9.89
2023-04-09T20:10:21.703Z,9.56
2023-04-09T20:12:49.665Z,9.71
2023-04-09T20:15:20.017Z,9.81
2023-04-09T20:17:50.721Z,9.77
2023-04-09T20:20:20.080Z,9.14
2023-04-09T20:22:55.663Z,9.55
2023-04-09T20:25:23.033Z,9.52
2023-04-09T20:27:50.492Z,9.24
2023-04-09T20:30:17.312Z,9.44
2023-04-09T20:32:43.968Z,8.94
2023-04-09T20:35:12.979Z,9.26
2023-04-09T20:37:39.633Z,9.29
2023-04-09T20:40:06.920Z,8.83
2023-04-09T20:42:33.644Z,8.98
2023-04-09T20:45:01.761Z,9.25
2023-04-09T20:47:28.707Z,9.09
2023-04-09T20:49:59.765Z,8.77
2023-04-09T20:52:29.559Z,9.15
2023-04-09T20:54:59.477Z,8.63
2023-04-09T20:57:26.030Z,8.96
2023-04-09T20:59:55.207Z,8.93
2023-04-09T21:02:22.117Z,8.96
2023-04-09T21:04:48.824Z,8.93
2023-04-09T21:07:15.776Z,8.90
2023-04-09T21:09:42.427Z,8.67
2023-04-09T21:12:09.038Z,8.95
2023-04-09T21:14:35.697Z,8.65
2023-04-09T21:17:02.383Z,8.83
2023-04-09T21:19:29.044Z,8.63
2023-04-09T21:21:55.636Z,8.83
2023-04-09T21:24:22.971Z,8.62
2023-04-09T21:26:52.097Z,8.14
2023-04-09T21:29:21.269Z,8.47
2023-04-09T21:31:48.974Z,8.55
2023-04-09T21:34:16.151Z,8.60
2023-04-09T21:36:45.333Z,8.60
2023-04-09T21:39:12.440Z,8.58
2023-04-09T21:41:39.567Z,8.49
2023-04-09T21:44:08.786Z,8.26
2023-04-09T21:46:38.435Z,8.38
2023-04-09T21:49:05.167Z,7.77
2023-04-09T21:51:32.446Z,8.25
2023-04-09T21:54:09.940Z,8.37
2023-04-09T21:56:37.023Z,8.13
2023-04-09T21:59:04.172Z,8.23
2023-04-09T22:01:31.653Z,7.95
2023-04-09T22:03:59.244Z,7.99
2023-04-09T22:06:27.393Z,8.10
2023-04-09T22:08:56.679Z,8.18
2023-04-09T22:11:28.469Z,8.15
2023-04-09T22:13:56.633Z,7.77
2023-04-09T22:16:23.651Z,7.95
2023-04-09T22:18:50.475Z,7.95
2023-04-09T22:21:17.315Z,8.01
2023-04-09T22:23:44.182Z,7.94
2023-04-09T22:26:10.919Z,8.01
2023-04-09T22:28:38.631Z,8.03
2023-04-09T22:31:06.036Z,7.75
2023-04-09T22:33:32.924Z,7.77
2023-04-09T22:35:59.718Z,7.78
2023-04-09T22:38:26.684Z,7.83
2023-04-09T22:40:53.522Z,7.25
2023-04-09T22:43:20.097Z,7.68
2023-04-09T22:45:57.402Z,7.65
2023-04-09T22:48:27.317Z,7.57
2023-04-09T22:50:53.932Z,7.52
2023-04-09T22:53:20.898Z,7.60
2023-04-09T22:55:51.754Z,7.54
2023-04-09T22:58:19.191Z,7.58
2023-04-09T23:00:47.257Z,7.64
2023-04-09T23:03:14.207Z,7.33
2023-04-09T23:05:41.332Z,7.49
2023-04-09T23:08:08.217Z,7.50
2023-04-09T23:10:35.109Z,7.45
2023-04-09T23:13:02.029Z,7.45
2023-04-09T23:15:28.830Z,7.37
2023-04-09T23:17:55.714Z,7.59
2023-04-09T23:20:22.546Z,7.61
2023-04-09T23:22:50.015Z,7.54
2023-04-09T23:25:17.012Z,7.58
2023-04-09T23:27:44.059Z,7.50
2023-04-09T23:30:11.374Z,7.51
2023-04-09T23:32:37.965Z,7.59
2023-04-09T23:35:04.882Z,7.26
2023-04-09T23:37:31.539Z,7.42
2023-04-09T23:39:58.374Z,7.50
2023-04-09T23:42:26.351Z,7.51
2023-04-09T23:44:52.954Z,7.40
2023-04-09T23:47:19.547Z,7.44
2023-04-09T23:49:46.842Z,7.39
2023-04-09T23:52:13.442Z,7.13
2023-04-09T23:54:48.991Z,7.52
2023-04-09T23:57:15.572Z,7.39
2023-04-09T23:59:42.183Z,7.39
